Time;durP1;ratioP1;P1;durP2;ratioP2;P2;SDS_P1;SDS_P2;PMS_P1;PMS_P2;Temp;Humidity;BMP_temperature;BMP_pressure;BME280_temperature;BME280_humidity;BME280_pressure;Samples;Min_cycle;Max_cycle;Signal;HPM_P1;HPM_P2
2022/09/13 00:09:10;;;;;;;;;;;;;;;17.64;61.67;100368.22;5612604;22;19946;-91
2022/09/13 00:11:35;;;;;;;;;;;;;;;17.60;61.89;100361.53;5041671;28;19921;-90
2022/09/13 01:17:17;;;;;;;;;;;;;;;17.13;54.35;100406.16;5698475;22;20015;-94
2022/09/13 01:20:22;;;;;;;;;;;;;;;17.17;53.88;100410.13;5077848;28;19981;-91
2022/09/13 02:26:06;;;;;;;;;;;;;;;16.45;53.58;100415.25;5257892;23;19917;-92
2022/09/13 02:29:10;;;;;;;;;;;;;;;16.33;54.67;100412.31;4976757;28;19941;-95
2022/09/13 02:32:40;;;;;;;;;;;;;;;16.41;54.26;100404.00;4944072;29;19919;-93
2022/09/13 02:35:49;;;;;;;;;;;;;;;16.40;54.57;100396.06;4893905;29;19918;-93
2022/09/13 02:38:58;;;;;;;;;;;;;;;16.24;55.17;100395.38;4910315;29;19948;-94
2022/09/13 02:41:53;;;;;;;;;;;;;;;16.34;55.31;100391.44;4845814;29;19921;-92
2022/09/13 02:45:01;;;;;;;;;;;;;;;16.18;55.78;100393.50;4853424;29;19929;-87
2022/09/13 02:48:09;;;;;;;;;;;;;;;16.16;56.20;100398.28;4838503;29;19912;-88
2022/09/13 02:51:19;;;;;;;;;;;;;;;16.23;56.16;100401.03;4845178;29;19923;-91
2022/09/13 02:53:50;;;;;;;;;;;;;;;16.15;56.09;100402.03;4848004;29;19921;-93
2022/09/13 02:56:40;;;;;;;;;;;;;;;16.09;56.20;100405.56;4832604;29;19931;-92
2022/09/13 02:59:27;;;;;;;;;;;;;;;16.12;56.22;100407.03;4851366;29;19938;-93
2022/09/13 03:02:05;;;;;;;;;;;;;;;16.12;56.62;100405.16;4908933;29;20352;-94
2022/09/13 03:05:01;;;;;;;;;;;;;;;16.12;56.08;100413.28;4954547;29;19914;-91
2022/09/13 03:07:53;;;;;;;;;;;;;;;16.00;57.07;100412.22;4910816;29;19920;-91
2022/09/13 03:10:26;;;;;;;;;;;;;;;16.07;56.53;100406.81;4899912;29;19918;-90
2022/09/13 03:13:00;;;;;;;;;;;;;;;16.04;56.52;100411.59;4898043;29;19919;-87
2022/09/13 03:15:52;;;;;;;;;;;;;;;15.93;56.48;100416.78;4898879;29;19924;-90
2022/09/13 03:18:40;;;;;;;;;;;;;;;16.03;56.57;100411.78;4884757;29;19932;-90
2022/09/13 03:21:24;;;;;;;;;;;;;;;15.88;56.88;100405.69;4921236;29;19947;-92
2022/09/13 03:24:08;;;;;;;;;;;;;;;15.89;56.76;100410.06;4903997;29;19919;-93
2022/09/13 03:26:35;;;;;;;;;;;;;;;15.81;57.52;100413.78;4924005;29;19922;-92
2022/09/13 03:29:20;;;;;;;;;;;;;;;15.77;57.28;100426.91;4910246;29;19931;-92
2022/09/13 03:32:05;;;;;;;;;;;;;;;15.77;57.25;100423.34;4926478;29;19915;-88
2022/09/13 03:34:48;;;;;;;;;;;;;;;15.77;56.67;100421.47;4931030;29;20380;-91
2022/09/13 03:37:52;;;;;;;;;;;;;;;15.66;56.57;100421.19;4950846;28;19918;-90
2022/09/13 03:40:34;;;;;;;;;;;;;;;15.50;56.78;100427.75;4945435;28;19929;-91
2022/09/13 03:43:21;;;;;;;;;;;;;;;15.43;56.59;100429.56;4985027;28;19922;-91
2022/09/13 03:45:58;;;;;;;;;;;;;;;15.37;57.32;100423.94;4975508;28;19926;-93
2022/09/13 03:48:24;;;;;;;;;;;;;;;15.28;57.68;100429.69;4976919;28;19922;-90
2022/09/13 03:51:01;;;;;;;;;;;;;;;15.29;57.95;100426.81;4978532;28;19943;-91
2022/09/13 03:53:30;;;;;;;;;;;;;;;15.28;57.26;100435.94;5006256;28;19921;-90
2022/09/13 03:55:58;;;;;;;;;;;;;;;15.29;56.89;100432.22;5009024;28;19930;-92
2022/09/13 03:58:42;;;;;;;;;;;;;;;15.26;57.02;100440.72;5006060;28;19918;-88
2022/09/13 04:01:09;;;;;;;;;;;;;;;15.19;56.99;100442.53;4964865;28;19932;-91
2022/09/13 04:03:35;;;;;;;;;;;;;;;15.17;57.19;100453.59;4979406;28;19932;-91
2022/09/13 04:06:00;;;;;;;;;;;;;;;15.09;56.96;100448.28;4974330;28;19980;-90
2022/09/13 04:08:27;;;;;;;;;;;;;;;15.09;57.23;100452.88;4971342;28;20464;-91
2022/09/13 04:10:54;;;;;;;;;;;;;;;15.14;57.52;100450.41;4974781;28;19929;-89
2022/09/13 04:13:21;;;;;;;;;;;;;;;15.15;56.94;100444.81;4963234;28;19925;-91
2022/09/13 04:15:49;;;;;;;;;;;;;;;15.18;56.98;100446.28;4971265;28;20024;-92
2022/09/13 04:18:18;;;;;;;;;;;;;;;15.28;57.13;100446.78;4977475;28;19953;-89
2022/09/13 04:20:44;;;;;;;;;;;;;;;15.31;57.04;100451.81;4979945;28;20362;-90
2022/09/13 04:23:09;;;;;;;;;;;;;;;15.49;56.73;100442.34;4977310;28;19922;-90
2022/09/13 04:25:40;;;;;;;;;;;;;;;15.50;56.82;100450.28;4979448;28;20012;-91
2022/09/13 04:28:09;;;;;;;;;;;;;;;15.56;57.43;100456.75;4996993;28;19917;-92
2022/09/13 04:30:36;;;;;;;;;;;;;;;15.59;57.12;100459.06;5015891;28;19918;-92
2022/09/13 04:33:04;;;;;;;;;;;;;;;15.72;56.68;100459.19;5030820;28;19917;-93
2022/09/13 04:35:35;;;;;;;;;;;;;;;15.68;56.25;100452.47;5023111;28;19917;-88
2022/09/13 04:38:01;;;;;;;;;;;;;;;15.79;55.82;100460.06;5022824;28;19917;-89
2022/09/13 04:40:26;;;;;;;;;;;;;;;15.85;55.76;100457.59;5011621;28;19925;-91
2022/09/13 04:42:54;;;;;;;;;;;;;;;15.94;55.45;100461.81;4994434;28;20128;-89
2022/09/13 04:45:20;;;;;;;;;;;;;;;16.01;55.50;100468.09;4998008;28;19984;-91
2022/09/13 04:47:52;;;;;;;;;;;;;;;16.06;54.95;100462.94;5002845;28;20369;-91
2022/09/13 04:50:21;;;;;;;;;;;;;;;16.08;54.43;100474.38;5014117;28;19972;-89
2022/09/13 04:53:08;;;;;;;;;;;;;;;16.24;55.04;100482.19;4996952;28;19927;-91
2022/09/13 04:55:39;;;;;;;;;;;;;;;16.30;53.93;100479.72;5020591;28;20247;-93
2022/09/13 04:58:16;;;;;;;;;;;;;;;16.25;53.65;100486.56;5017390;28;19913;-91
2022/09/13 05:00:43;;;;;;;;;;;;;;;16.42;53.34;100488.94;5001126;28;19914;-90
2022/09/13 05:03:11;;;;;;;;;;;;;;;16.33;53.48;100487.44;5028056;28;19932;-88
2022/09/13 05:05:39;;;;;;;;;;;;;;;16.41;53.41;100482.69;5021336;28;19917;-88
2022/09/13 05:08:04;;;;;;;;;;;;;;;16.47;53.04;100483.72;5004709;28;19918;-90
2022/09/13 05:10:34;;;;;;;;;;;;;;;16.51;53.53;100479.56;4990493;28;19917;-90
2022/09/13 05:13:00;;;;;;;;;;;;;;;16.66;53.01;100482.94;4998307;28;19921;-92
2022/09/13 05:15:29;;;;;;;;;;;;;;;16.70;52.74;100485.25;4993563;28;19952;-91
2022/09/13 05:17:56;;;;;;;;;;;;;;;16.74;53.22;100486.50;5006924;28;19917;-90
2022/09/13 05:20:21;;;;;;;;;;;;;;;16.84;52.48;100481.56;4995588;28;19921;-91
2022/09/13 05:22:49;;;;;;;;;;;;;;;16.91;52.21;100473.44;4995621;28;19918;-90
2022/09/13 05:25:16;;;;;;;;;;;;;;;17.05;52.21;100475.94;4983780;28;20329;-88
2022/09/13 05:27:44;;;;;;;;;;;;;;;17.38;50.94;100480.53;4990952;28;20397;-88
2022/09/13 05:30:09;;;;;;;;;;;;;;;17.86;49.76;100488.44;5009321;28;19937;-92
2022/09/13 05:32:35;;;;;;;;;;;;;;;18.34;49.41;100485.34;4973091;28;20350;-89
2022/09/13 05:35:09;;;;;;;;;;;;;;;18.79;47.62;100480.94;4988506;28;20397;-90
2022/09/13 05:37:34;;;;;;;;;;;;;;;19.14;46.56;100482.16;4995103;28;20073;-87
2022/09/13 05:40:00;;;;;;;;;;;;;;;19.55;46.14;100485.34;4987305;28;20394;-87
2022/09/13 05:42:26;;;;;;;;;;;;;;;19.96;44.83;100482.03;5003167;28;19921;-89
2022/09/13 05:48:16;;;;;;;;;;;;;;;20.78;42.88;100480.81;5015166;28;19916;-89
2022/09/13 05:50:43;;;;;;;;;;;;;;;21.16;41.66;100480.41;5015971;28;19932;-90
2022/09/13 05:53:08;;;;;;;;;;;;;;;21.31;39.93;100469.03;4991611;28;19933;-85
2022/09/13 05:55:35;;;;;;;;;;;;;;;21.65;39.35;100483.78;5003367;28;19914;-88
2022/09/13 05:58:02;;;;;;;;;;;;;;;21.91;40.50;100481.63;4989460;28;20033;-88
2022/09/13 06:00:27;;;;;;;;;;;;;;;22.24;40.29;100478.28;5007525;28;19928;-88
2022/09/13 06:02:52;;;;;;;;;;;;;;;22.74;38.31;100483.06;4994486;28;19921;-88
2022/09/13 06:05:19;;;;;;;;;;;;;;;22.93;37.81;100486.44;5003128;28;20275;-86
2022/09/13 06:07:45;;;;;;;;;;;;;;;23.30;37.58;100480.50;5010101;28;20000;-86
2022/09/13 06:10:12;;;;;;;;;;;;;;;23.54;36.54;100477.59;5010784;28;19918;-85
2022/09/13 06:12:37;;;;;;;;;;;;;;;24.04;35.57;100487.63;5011073;28;19948;-87
2022/09/13 06:15:03;;;;;;;;;;;;;;;24.42;34.91;100488.69;4989979;28;19922;-85
2022/09/13 06:17:28;;;;;;;;;;;;;;;24.59;33.35;100494.94;5002148;28;19924;-86
2022/09/13 06:19:56;;;;;;;;;;;;;;;24.68;33.68;100491.72;4988226;28;19917;-87
2022/09/13 06:22:21;;;;;;;;;;;;;;;24.80;34.45;100495.16;5023797;28;19959;-91
2022/09/13 06:24:47;;;;;;;;;;;;;;;24.63;35.86;100495.22;5001181;28;19926;-85
2022/09/13 06:27:14;;;;;;;;;;;;;;;24.43;35.79;100493.06;4990889;28;19924;-85
2022/09/13 06:29:43;;;;;;;;;;;;;;;24.52;35.20;100499.81;5006767;28;19918;-92
2022/09/13 06:32:08;;;;;;;;;;;;;;;24.63;34.57;100503.47;4987359;28;19921;-93
2022/09/13 06:34:38;;;;;;;;;;;;;;;24.75;34.39;100497.88;5011668;28;19956;-88
2022/09/13 06:37:06;;;;;;;;;;;;;;;24.91;34.50;100507.06;5010997;28;19921;-89
2022/09/13 06:39:36;;;;;;;;;;;;;;;24.83;33.64;100495.47;5006122;28;19921;-90
2022/09/13 06:42:06;;;;;;;;;;;;;;;24.88;33.86;100508.44;5014968;28;19922;-89
2022/09/13 06:44:31;;;;;;;;;;;;;;;24.89;33.39;100510.09;5010399;28;19917;-89
2022/09/13 06:46:57;;;;;;;;;;;;;;;25.12;35.08;100506.16;5011676;28;19932;-87
2022/09/13 06:49:23;;;;;;;;;;;;;;;25.37;33.50;100502.84;5008304;28;19996;-87
2022/09/13 06:51:48;;;;;;;;;;;;;;;25.30;33.49;100506.91;5023093;28;19917;-86
2022/09/13 06:54:15;;;;;;;;;;;;;;;25.57;33.65;100515.94;5016732;28;20376;-88
2022/09/13 06:56:41;;;;;;;;;;;;;;;25.59;33.49;100512.91;5010815;28;20375;-87
2022/09/13 06:59:07;;;;;;;;;;;;;;;25.69;33.34;100500.06;4987218;28;20082;-87
2022/09/13 07:01:39;;;;;;;;;;;;;;;25.84;32.68;100504.81;5009101;28;19921;-89
2022/09/13 07:04:06;;;;;;;;;;;;;;;25.95;33.64;100504.91;5002754;28;19913;-86
2022/09/13 07:06:33;;;;;;;;;;;;;;;25.72;32.73;100512.44;4979121;28;20698;-84
2022/09/13 07:08:59;;;;;;;;;;;;;;;25.60;33.40;100507.16;5004712;28;19955;-92
2022/09/13 07:11:27;;;;;;;;;;;;;;;25.88;33.55;100494.13;4975622;28;19913;-89
2022/09/13 07:13:54;;;;;;;;;;;;;;;26.06;32.70;100496.44;5020633;28;19914;-85
2022/09/13 07:16:22;;;;;;;;;;;;;;;26.28;32.09;100510.03;5005088;28;19918;-82
2022/09/13 07:18:51;;;;;;;;;;;;;;;26.65;31.82;100498.06;4991058;28;19921;-81
2022/09/13 07:21:17;;;;;;;;;;;;;;;26.78;31.89;100501.38;5001149;28;19927;-83
2022/09/13 07:23:42;;;;;;;;;;;;;;;26.97;31.12;100505.28;5017962;28;19949;-82
2022/09/13 07:26:08;;;;;;;;;;;;;;;27.08;30.96;100500.59;4995980;28;19929;-84
2022/09/13 07:28:38;;;;;;;;;;;;;;;27.39;31.22;100512.50;5002006;28;19924;-81
2022/09/13 07:31:05;;;;;;;;;;;;;;;27.71;30.96;100508.59;5004539;28;20020;-82
2022/09/13 07:33:31;;;;;;;;;;;;;;;27.67;30.79;100501.97;5022982;28;19917;-82
2022/09/13 07:36:00;;;;;;;;;;;;;;;28.18;30.39;100499.09;5014436;28;19928;-84
2022/09/13 07:38:25;;;;;;;;;;;;;;;28.30;30.12;100501.53;4979596;28;20242;-81
2022/09/13 07:40:57;;;;;;;;;;;;;;;28.82;29.26;100501.03;4991575;28;19917;-80
2022/09/13 07:43:23;;;;;;;;;;;;;;;29.50;27.77;100507.72;5013140;28;19917;-80
2022/09/13 07:45:56;;;;;;;;;;;;;;;30.46;26.49;100496.69;4989781;28;20004;-81
2022/09/13 07:48:22;;;;;;;;;;;;;;;30.83;25.44;100497.81;5012896;28;20432;-81
2022/09/13 07:51:17;;;;;;;;;;;;;;;31.15;24.66;100507.34;4993162;28;19952;-81
2022/09/13 07:53:43;;;;;;;;;;;;;;;31.89;23.89;100512.16;4987065;28;19968;-80
2022/09/13 07:56:10;;;;;;;;;;;;;;;32.55;23.14;100505.31;5006669;28;20412;-80
2022/09/13 07:58:35;;;;;;;;;;;;;;;33.25;21.45;100503.13;4996683;28;20008;-80
2022/09/13 08:01:21;;;;;;;;;;;;;;;33.99;19.04;100508.13;4987839;28;19913;-81
2022/09/13 08:03:59;;;;;;;;;;;;;;;34.54;18.14;100504.03;5013236;28;19947;-81
2022/09/13 08:06:25;;;;;;;;;;;;;;;35.45;16.78;100510.63;4977650;28;19968;-80
2022/09/13 08:08:51;;;;;;;;;;;;;;;35.90;16.22;100498.16;4987853;28;19921;-81
2022/09/13 08:11:18;;;;;;;;;;;;;;;36.03;16.35;100491.50;5012438;28;19917;-81
2022/09/13 08:13:43;;;;;;;;;;;;;;;36.50;15.33;100507.38;4980119;28;19924;-80
2022/09/13 08:16:10;;;;;;;;;;;;;;;37.02;14.61;100500.56;5007994;28;19917;-81
2022/09/13 08:18:37;;;;;;;;;;;;;;;36.87;14.17;100496.44;5013894;28;19921;-82
2022/09/13 08:21:03;;;;;;;;;;;;;;;37.21;14.30;100489.72;5011222;28;19926;-80
2022/09/13 08:23:29;;;;;;;;;;;;;;;37.77;14.88;100494.91;5013225;28;19913;-81
2022/09/13 08:25:59;;;;;;;;;;;;;;;39.09;13.20;100492.63;4985485;28;19918;-81
2022/09/13 08:28:24;;;;;;;;;;;;;;;38.19;13.20;100497.50;5013187;28;19917;-80
2022/09/13 08:30:49;;;;;;;;;;;;;;;38.13;13.23;100484.88;5011221;28;20404;-80
2022/09/13 08:33:15;;;;;;;;;;;;;;;39.01;12.59;100485.19;4993707;28;19917;-81
2022/09/13 08:35:40;;;;;;;;;;;;;;;38.55;12.69;100484.59;4993330;28;19917;-80
2022/09/13 08:38:05;;;;;;;;;;;;;;;39.62;12.46;100481.22;5011298;28;19920;-80
2022/09/13 08:40:41;;;;;;;;;;;;;;;40.64;11.73;100484.06;4985706;28;20346;-80
2022/09/13 08:43:07;;;;;;;;;;;;;;;40.78;11.19;100482.78;5009780;28;19921;-80
2022/09/13 08:45:32;;;;;;;;;;;;;;;40.12;11.41;100481.66;5008895;28;19975;-79
2022/09/13 08:48:01;;;;;;;;;;;;;;;41.26;11.54;100478.53;4992391;28;20389;-80
2022/09/13 08:50:27;;;;;;;;;;;;;;;41.48;11.04;100468.44;5009268;28;19918;-80
2022/09/13 08:53:02;;;;;;;;;;;;;;;42.17;10.39;100476.88;4991756;28;20001;-80
2022/09/13 08:55:47;;;;;;;;;;;;;;;43.68;9.63;100463.78;5001719;28;20020;-79
2022/09/13 08:58:19;;;;;;;;;;;;;;;43.33;9.19;100457.38;5007708;28;19921;-80
2022/09/13 09:00:47;;;;;;;;;;;;;;;43.02;9.56;100460.66;4991559;28;20069;-79
2022/09/13 09:03:22;;;;;;;;;;;;;;;43.64;9.56;100466.56;5012869;28;19921;-79
2022/09/13 09:05:48;;;;;;;;;;;;;;;41.05;10.72;100453.53;5006585;28;19921;-81
2022/09/13 09:08:37;;;;;;;;;;;;;;;41.88;10.53;100446.56;4995244;28;19926;-80
2022/09/13 09:11:03;;;;;;;;;;;;;;;41.47;10.69;100457.56;4992067;28;19913;-80
2022/09/13 09:13:30;;;;;;;;;;;;;;;42.17;10.39;100450.63;4978486;28;19928;-81
2022/09/13 09:16:04;;;;;;;;;;;;;;;43.48;9.13;100440.50;4987288;28;19925;-81
2022/09/13 09:18:37;;;;;;;;;;;;;;;44.60;8.95;100449.41;4978984;28;19922;-80
2022/09/13 09:21:03;;;;;;;;;;;;;;;43.46;9.72;100443.75;4990619;28;19924;-80
2022/09/13 09:23:38;;;;;;;;;;;;;;;43.24;9.82;100453.22;4994759;28;20107;-80
2022/09/13 09:26:16;;;;;;;;;;;;;;;41.29;10.49;100441.09;4983530;28;19969;-80
2022/09/13 09:28:42;;;;;;;;;;;;;;;39.23;12.49;100435.97;4959342;28;19959;-80
2022/09/13 09:31:16;;;;;;;;;;;;;;;37.71;13.29;100431.78;4972609;28;19949;-80
2022/09/13 09:33:41;;;;;;;;;;;;;;;36.55;14.78;100437.22;4975535;28;19920;-79
2022/09/13 09:36:16;;;;;;;;;;;;;;;36.23;14.32;100433.97;4972258;28;19921;-80
2022/09/13 09:38:44;;;;;;;;;;;;;;;35.09;17.87;100444.75;4975181;28;19955;-80
2022/09/13 09:41:15;;;;;;;;;;;;;;;33.21;21.23;100430.50;4963136;28;19909;-80
2022/09/13 09:43:44;;;;;;;;;;;;;;;31.98;21.45;100431.69;4974989;28;19933;-79
2022/09/13 09:46:10;;;;;;;;;;;;;;;30.97;23.39;100447.13;4986453;28;19936;-79
2022/09/13 09:48:40;;;;;;;;;;;;;;;30.00;25.63;100447.34;4974815;28;19941;-80
2022/09/13 09:51:07;;;;;;;;;;;;;;;28.61;27.76;100444.16;4960187;28;19917;-81
2022/09/13 09:53:41;;;;;;;;;;;;;;;28.02;29.36;100447.78;4973462;28;19917;-80
2022/09/13 09:56:21;;;;;;;;;;;;;;;27.37;30.73;100454.00;4985767;28;19925;-81
2022/09/13 09:58:47;;;;;;;;;;;;;;;28.22;29.60;100447.69;4974549;28;19968;-82
2022/09/13 10:01:23;;;;;;;;;;;;;;;27.02;30.87;100452.88;4984869;28;20084;-80
2022/09/13 10:03:55;;;;;;;;;;;;;;;26.33;32.47;100459.63;4977309;28;19977;-79
2022/09/13 10:06:21;;;;;;;;;;;;;;;25.64;33.37;100466.16;4985004;28;20341;-79
2022/09/13 10:08:48;;;;;;;;;;;;;;;25.32;34.04;100464.28;4974039;28;19913;-80
2022/09/13 10:11:13;;;;;;;;;;;;;;;25.88;33.22;100461.91;4969695;28;19917;-79
2022/09/13 10:13:39;;;;;;;;;;;;;;;25.66;33.62;100458.44;4974644;28;19922;-81
2022/09/13 10:16:05;;;;;;;;;;;;;;;25.69;34.37;100463.44;4965176;28;19922;-80
2022/09/13 10:18:31;;;;;;;;;;;;;;;25.41;34.81;100462.69;4991999;28;19914;-80
2022/09/13 10:21:05;;;;;;;;;;;;;;;24.49;36.36;100475.59;4984364;28;19925;-80
2022/09/13 10:23:34;;;;;;;;;;;;;;;24.27;36.73;100467.34;4963889;28;20270;-81
2022/09/13 10:26:01;;;;;;;;;;;;;;;26.28;33.89;100462.38;4990272;28;20064;-81
2022/09/13 10:28:26;;;;;;;;;;;;;;;28.42;29.37;100458.66;4991972;28;20309;-80
2022/09/13 10:30:53;;;;;;;;;;;;;;;27.73;31.03;100451.16;5012014;28;19918;-80
2022/09/13 10:33:21;;;;;;;;;;;;;;;26.39;33.32;100460.47;5019537;28;19949;-80
2022/09/13 10:35:49;;;;;;;;;;;;;;;25.89;33.76;100460.84;5014012;28;19991;-80
2022/09/13 10:38:33;;;;;;;;;;;;;;;25.27;34.55;100456.00;5011027;28;19924;-79
2022/09/13 10:40:59;;;;;;;;;;;;;;;24.67;35.66;100459.84;5001840;28;19913;-81
2022/09/13 10:43:26;;;;;;;;;;;;;;;24.70;35.72;100462.06;4993816;28;20381;-80
2022/09/13 10:45:51;;;;;;;;;;;;;;;24.11;36.74;100455.31;5008400;28;19914;-81
2022/09/13 10:48:17;;;;;;;;;;;;;;;24.81;35.74;100459.13;4977173;28;19958;-79
2022/09/13 10:51:01;;;;;;;;;;;;;;;25.10;35.03;100460.75;4989965;28;19924;-80
2022/09/13 10:53:39;;;;;;;;;;;;;;;24.30;36.69;100457.75;4990394;28;19913;-81
2022/09/13 10:56:05;;;;;;;;;;;;;;;24.64;35.82;100447.44;4988116;28;19917;-81
2022/09/13 10:58:31;;;;;;;;;;;;;;;23.89;37.49;100446.28;5008388;28;20075;-80
2022/09/13 11:00:56;;;;;;;;;;;;;;;23.61;37.51;100434.34;4979441;28;19921;-80
2022/09/13 11:03:39;;;;;;;;;;;;;;;23.74;37.89;100439.50;5005554;28;19971;-81
2022/09/13 11:06:15;;;;;;;;;;;;;;;23.53;38.03;100441.09;4987049;28;19935;-79
2022/09/13 11:08:40;;;;;;;;;;;;;;;24.32;37.36;100441.84;4993146;28;20063;-80
2022/09/13 11:11:08;;;;;;;;;;;;;;;27.31;31.92;100450.41;4997774;28;19922;-81
2022/09/13 11:14:07;;;;;;;;;;;;;;;27.19;31.79;100451.78;4990973;28;20444;-80
2022/09/13 11:16:51;;;;;;;;;;;;;;;27.29;30.69;100440.75;5001545;28;20000;-80
2022/09/13 11:19:28;;;;;;;;;;;;;;;26.30;32.20;100436.19;4989394;28;19928;-81
2022/09/13 11:22:05;;;;;;;;;;;;;;;26.54;31.85;100441.25;4988487;28;19917;-79
2022/09/13 11:24:43;;;;;;;;;;;;;;;27.79;29.90;100431.53;5005644;28;19918;-80
2022/09/13 11:27:16;;;;;;;;;;;;;;;26.78;31.52;100432.44;4983189;28;19922;-79
2022/09/13 11:29:41;;;;;;;;;;;;;;;26.00;32.94;100434.16;4974701;28;19921;-82
2022/09/13 11:32:12;;;;;;;;;;;;;;;25.83;33.61;100431.56;4971762;28;19929;-79
2022/09/13 11:34:41;;;;;;;;;;;;;;;24.91;34.60;100417.19;4974456;28;19949;-83
2022/09/13 11:37:15;;;;;;;;;;;;;;;24.18;36.34;100428.50;4970950;28;20287;-81
2022/09/13 11:39:45;;;;;;;;;;;;;;;23.97;37.03;100429.34;4977355;28;20027;-81
2022/09/13 11:42:11;;;;;;;;;;;;;;;23.68;37.60;100413.03;4951577;28;19918;-80
2022/09/13 11:44:40;;;;;;;;;;;;;;;23.86;37.49;100420.16;4974376;28;20386;-81
2022/09/13 11:47:11;;;;;;;;;;;;;;;24.17;36.75;100423.28;4977737;28;19950;-80
2022/09/13 11:49:41;;;;;;;;;;;;;;;24.23;36.14;100420.34;4977247;28;19925;-81
2022/09/13 11:52:16;;;;;;;;;;;;;;;24.23;36.02;100422.22;4960003;28;20736;-80
2022/09/13 11:54:42;;;;;;;;;;;;;;;24.46;35.91;100420.28;4962502;28;19918;-79
2022/09/13 11:57:11;;;;;;;;;;;;;;;25.35;34.28;100418.91;4971842;28;19973;-81
2022/09/13 11:59:41;;;;;;;;;;;;;;;24.84;35.39;100420.16;4973256;28;19922;-80
2022/09/13 12:02:29;;;;;;;;;;;;;;;25.33;34.97;100416.41;4954456;28;19980;-78
2022/09/13 12:04:56;;;;;;;;;;;;;;;25.77;33.82;100410.59;4963991;28;19918;-79
2022/09/13 12:07:27;;;;;;;;;;;;;;;26.08;33.15;100417.13;4981653;28;19914;-80
2022/09/13 12:09:54;;;;;;;;;;;;;;;25.97;33.03;100411.84;4963709;28;20424;-80
2022/09/13 12:12:20;;;;;;;;;;;;;;;26.00;32.78;100417.63;4956224;28;19914;-80
2022/09/13 12:15:16;;;;;;;;;;;;;;;25.46;33.13;100426.13;4965872;28;20045;-79
2022/09/13 12:17:42;;;;;;;;;;;;;;;24.64;35.17;100418.03;4982368;28;19910;-79
2022/09/13 12:20:26;;;;;;;;;;;;;;;24.40;35.80;100427.66;4953742;28;19924;-80
2022/09/13 12:22:53;;;;;;;;;;;;;;;24.38;36.04;100433.41;4973185;28;20318;-79
2022/09/13 12:25:33;;;;;;;;;;;;;;;23.98;36.42;100428.28;4987623;28;19933;-86
2022/09/13 12:28:05;;;;;;;;;;;;;;;24.13;36.64;100431.19;5007637;28;19917;-88
2022/09/13 12:30:43;;;;;;;;;;;;;;;24.19;36.63;100426.59;5005424;28;19977;-84
2022/09/13 12:33:10;;;;;;;;;;;;;;;23.87;37.72;100424.56;5011769;28;20070;-87
2022/09/13 12:35:54;;;;;;;;;;;;;;;23.52;38.38;100427.63;4989237;28;19917;-86
2022/09/13 12:38:36;;;;;;;;;;;;;;;23.32;38.82;100430.88;5004456;28;19936;-84
2022/09/13 12:41:06;;;;;;;;;;;;;;;23.13;39.25;100427.56;4982634;28;20301;-83
2022/09/13 12:43:43;;;;;;;;;;;;;;;23.08;39.44;100427.47;5007178;28;19967;-82
2022/09/13 12:46:12;;;;;;;;;;;;;;;23.10;39.89;100430.81;5006052;28;19921;-91
2022/09/13 12:48:40;;;;;;;;;;;;;;;23.21;39.95;100429.91;5012042;28;19921;-88
2022/09/13 12:51:06;;;;;;;;;;;;;;;22.94;40.74;100429.69;4990465;28;19917;-83
2022/09/13 12:53:49;;;;;;;;;;;;;;;23.12;40.73;100426.75;5009869;28;19927;-83
2022/09/13 12:56:17;;;;;;;;;;;;;;;22.48;41.09;100434.38;5001357;28;19961;-85
2022/09/13 12:58:52;;;;;;;;;;;;;;;22.27;42.18;100435.88;5009018;28;20012;-83
2022/09/13 13:01:22;;;;;;;;;;;;;;;22.07;42.88;100434.34;4996863;28;19922;-84
2022/09/13 13:03:55;;;;;;;;;;;;;;;21.93;42.88;100438.44;4977761;28;19918;-84
2022/09/13 13:06:32;;;;;;;;;;;;;;;22.02;42.23;100438.91;4978776;28;20382;-85
2022/09/13 13:09:00;;;;;;;;;;;;;;;21.98;42.51;100440.44;4996464;28;20348;-85
2022/09/13 13:11:26;;;;;;;;;;;;;;;21.98;42.29;100440.44;4984776;28;19925;-83
2022/09/13 13:14:01;;;;;;;;;;;;;;;21.85;42.40;100442.41;4985428;28;19918;-82
2022/09/13 13:16:32;;;;;;;;;;;;;;;21.87;42.81;100448.47;5007635;28;19917;-83
2022/09/13 13:19:02;;;;;;;;;;;;;;;21.94;42.66;100448.34;5013418;28;19929;-89
2022/09/13 13:21:29;;;;;;;;;;;;;;;21.98;42.67;100451.41;5012655;28;19921;-87
2022/09/13 13:24:13;;;;;;;;;;;;;;;22.08;42.89;100455.19;5033757;28;19961;-87
2022/09/13 13:26:41;;;;;;;;;;;;;;;22.23;42.11;100454.69;5016829;28;19993;-88
2022/09/13 13:29:16;;;;;;;;;;;;;;;22.58;41.44;100456.47;5014906;28;19918;-87
2022/09/13 13:31:43;;;;;;;;;;;;;;;22.58;41.34;100458.38;5005448;28;19917;-87
2022/09/13 13:34:14;;;;;;;;;;;;;;;22.51;40.54;100464.84;4984164;28;19932;-88
2022/09/13 13:36:40;;;;;;;;;;;;;;;22.62;40.93;100454.09;4976794;28;19913;-89
2022/09/13 13:39:13;;;;;;;;;;;;;;;22.51;40.66;100459.34;4994260;28;20271;-90
2022/09/13 13:41:52;;;;;;;;;;;;;;;22.49;40.42;100456.03;4996479;28;19940;-90
2022/09/13 13:44:19;;;;;;;;;;;;;;;22.59;40.59;100457.28;5013442;28;19996;-89
2022/09/13 13:46:51;;;;;;;;;;;;;;;22.59;41.03;100460.88;4995703;28;20427;-91
2022/09/13 13:49:29;;;;;;;;;;;;;;;22.26;42.17;100456.13;5012392;28;20379;-90
2022/09/13 13:52:09;;;;;;;;;;;;;;;22.20;41.68;100459.81;5010457;28;19917;-91
2022/09/13 13:54:41;;;;;;;;;;;;;;;22.25;42.58;100454.47;4989558;28;20016;-88
2022/09/13 13:57:25;;;;;;;;;;;;;;;22.21;41.71;100465.06;4995014;28;19914;-90
2022/09/13 14:00:07;;;;;;;;;;;;;;;22.22;41.77;100464.00;5040643;23;19940;-92
2022/09/13 14:02:52;;;;;;;;;;;;;;;22.16;41.27;100467.66;5061790;28;19923;-89
2022/09/13 14:05:35;;;;;;;;;;;;;;;22.20;42.11;100473.50;5067856;28;20016;-87
2022/09/13 14:08:20;;;;;;;;;;;;;;;21.88;42.38;100471.19;5046625;28;19920;-88
2022/09/13 14:10:51;;;;;;;;;;;;;;;21.65;42.81;100477.50;5044433;28;20318;-83
2022/09/13 14:13:24;;;;;;;;;;;;;;;21.63;43.03;100477.75;5040049;28;19917;-89
2022/09/13 14:16:10;;;;;;;;;;;;;;;21.47;43.46;100475.75;5050734;28;19981;-88
2022/09/13 14:18:53;;;;;;;;;;;;;;;21.47;43.73;100464.81;5054160;28;19917;-86
2022/09/13 14:21:28;;;;;;;;;;;;;;;21.31;44.17;100473.69;5062020;28;19999;-86
2022/09/13 14:24:27;;;;;;;;;;;;;;;21.34;44.56;100473.19;5054121;28;19916;-87
2022/09/13 14:26:53;;;;;;;;;;;;;;;21.40;44.76;100475.00;4992576;28;19958;-86
2022/09/13 14:29:22;;;;;;;;;;;;;;;21.62;44.12;100469.78;4982886;28;19914;-89
2022/09/13 14:31:50;;;;;;;;;;;;;;;21.62;44.55;100473.34;5065812;28;19943;-90
2022/09/13 14:34:19;;;;;;;;;;;;;;;21.77;43.89;100478.31;5070233;28;19964;-91
2022/09/13 14:36:55;;;;;;;;;;;;;;;21.74;43.34;100477.97;5067016;28;20400;-88
2022/09/13 14:39:22;;;;;;;;;;;;;;;21.45;44.23;100486.06;5049798;28;20029;-85
2022/09/13 14:41:57;;;;;;;;;;;;;;;21.33;44.58;100485.19;5071440;28;19916;-88
2022/09/13 14:44:24;;;;;;;;;;;;;;;21.42;44.30;100489.28;5055610;28;19942;-86
2022/09/13 14:46:52;;;;;;;;;;;;;;;21.49;44.21;100495.44;5072310;28;20109;-85
2022/09/13 14:49:22;;;;;;;;;;;;;;;21.39;44.39;100493.28;5069773;28;20062;-87
2022/09/13 14:51:49;;;;;;;;;;;;;;;21.45;44.64;100484.16;5049923;28;19968;-84
2022/09/13 14:54:18;;;;;;;;;;;;;;;21.56;44.20;100496.16;5046663;28;19931;-85
2022/09/13 14:56:48;;;;;;;;;;;;;;;21.61;44.20;100498.19;5052238;28;20015;-84
2022/09/13 14:59:19;;;;;;;;;;;;;;;21.62;43.58;100494.41;5038572;28;19974;-84
2022/09/13 15:01:45;;;;;;;;;;;;;;;21.67;43.69;100489.88;5035211;28;19916;-85
2022/09/13 15:04:10;;;;;;;;;;;;;;;21.70;43.67;100491.28;5041126;28;19923;-86
2022/09/13 15:06:39;;;;;;;;;;;;;;;21.57;43.81;100492.38;5065934;28;19944;-84
2022/09/13 15:09:14;;;;;;;;;;;;;;;21.88;43.08;100498.53;5071828;28;19939;-84
2022/09/13 15:11:52;;;;;;;;;;;;;;;21.77;43.14;100496.66;5068271;28;20008;-89
2022/09/13 15:14:22;;;;;;;;;;;;;;;21.70;43.03;100497.63;5072083;28;19920;-89
2022/09/13 15:16:50;;;;;;;;;;;;;;;21.57;43.31;100497.03;5054376;28;19912;-86
2022/09/13 15:19:35;;;;;;;;;;;;;;;21.61;43.59;100496.31;5036481;28;19917;-84
2022/09/13 15:22:21;;;;;;;;;;;;;;;21.27;43.91;100496.00;5063822;28;20343;-87